sensor_id;sensor_type;location;lat;lon;timestamp;P1;durP1;ratioP1;P2;durP2;ratioP2
5412;SDS011;2729;50.056;8.678;2022-12-07T00:01:09;7.57;;;5.13;;
5412;SDS011;2729;50.056;8.678;2022-12-07T00:03:37;18.70;;;5.83;;
5412;SDS011;2729;50.056;8.678;2022-12-07T00:06:04;12.07;;;4.80;;
5412;SDS011;2729;50.056;8.678;2022-12-07T00:08:32;9.63;;;5.70;;
5412;SDS011;2729;50.056;8.678;2022-12-07T00:11:03;7.43;;;4.70;;
5412;SDS011;2729;50.056;8.678;2022-12-07T00:13:31;8.83;;;4.83;;
5412;SDS011;2729;50.056;8.678;2022-12-07T00:16:01;6.97;;;4.50;;
5412;SDS011;2729;50.056;8.678;2022-12-07T00:18:29;8.33;;;4.20;;
5412;SDS011;2729;50.056;8.678;2022-12-07T00:21:01;6.33;;;4.67;;
5412;SDS011;2729;50.056;8.678;2022-12-07T00:23:29;9.93;;;4.87;;
5412;SDS011;2729;50.056;8.678;2022-12-07T00:25:55;9.40;;;5.17;;
5412;SDS011;2729;50.056;8.678;2022-12-07T00:28:21;12.23;;;6.27;;
5412;SDS011;2729;50.056;8.678;2022-12-07T00:30:47;6.63;;;4.73;;
5412;SDS011;2729;50.056;8.678;2022-12-07T00:33:13;12.70;;;6.43;;
5412;SDS011;2729;50.056;8.678;2022-12-07T00:35:39;8.47;;;5.40;;
5412;SDS011;2729;50.056;8.678;2022-12-07T00:38:05;8.50;;;5.27;;
5412;SDS011;2729;50.056;8.678;2022-12-07T00:40:31;8.03;;;4.70;;
5412;SDS011;2729;50.056;8.678;2022-12-07T00:42:57;17.40;;;4.97;;
5412;SDS011;2729;50.056;8.678;2022-12-07T00:45:23;8.03;;;5.60;;
5412;SDS011;2729;50.056;8.678;2022-12-07T00:47:49;10.53;;;5.60;;
5412;SDS011;2729;50.056;8.678;2022-12-07T00:50:15;6.57;;;4.93;;
5412;SDS011;2729;50.056;8.678;2022-12-07T00:52:41;7.70;;;4.90;;
5412;SDS011;2729;50.056;8.678;2022-12-07T00:55:07;8.93;;;5.33;;
5412;SDS011;2729;50.056;8.678;2022-12-07T00:57:33;10.30;;;5.27;;
5412;SDS011;2729;50.056;8.678;2022-12-07T00:59:59;6.40;;;4.70;;
5412;SDS011;2729;50.056;8.678;2022-12-07T01:02:26;8.63;;;5.40;;
5412;SDS011;2729;50.056;8.678;2022-12-07T01:04:52;8.70;;;5.10;;
5412;SDS011;2729;50.056;8.678;2022-12-07T01:07:18;9.00;;;4.73;;
5412;SDS011;2729;50.056;8.678;2022-12-07T01:09:44;10.23;;;5.40;;
5412;SDS011;2729;50.056;8.678;2022-12-07T01:12:10;7.30;;;4.80;;
5412;SDS011;2729;50.056;8.678;2022-12-07T01:14:36;11.83;;;6.37;;
5412;SDS011;2729;50.056;8.678;2022-12-07T01:17:01;9.60;;;4.87;;
5412;SDS011;2729;50.056;8.678;2022-12-07T01:19:27;8.77;;;5.03;;
5412;SDS011;2729;50.056;8.678;2022-12-07T01:21:53;8.50;;;5.03;;
5412;SDS011;2729;50.056;8.678;2022-12-07T01:24:19;9.67;;;6.00;;
5412;SDS011;2729;50.056;8.678;2022-12-07T01:26:45;10.27;;;5.73;;
5412;SDS011;2729;50.056;8.678;2022-12-07T01:29:14;9.70;;;5.57;;
5412;SDS011;2729;50.056;8.678;2022-12-07T01:31:40;7.83;;;5.00;;
5412;SDS011;2729;50.056;8.678;2022-12-07T01:34:06;7.60;;;5.40;;
5412;SDS011;2729;50.056;8.678;2022-12-07T01:36:35;9.80;;;5.50;;
5412;SDS011;2729;50.056;8.678;2022-12-07T01:39:03;7.43;;;5.23;;
5412;SDS011;2729;50.056;8.678;2022-12-07T01:41:32;9.43;;;5.37;;
5412;SDS011;2729;50.056;8.678;2022-12-07T01:44:16;9.30;;;5.57;;
5412;SDS011;2729;50.056;8.678;2022-12-07T01:46:48;9.30;;;5.17;;
5412;SDS011;2729;50.056;8.678;2022-12-07T01:51:55;9.90;;;5.27;;
5412;SDS011;2729;50.056;8.678;2022-12-07T01:54:43;7.03;;;4.77;;
5412;SDS011;2729;50.056;8.678;2022-12-07T01:57:11;10.63;;;4.60;;
5412;SDS011;2729;50.056;8.678;2022-12-07T01:59:40;8.07;;;4.83;;
5412;SDS011;2729;50.056;8.678;2022-12-07T02:02:11;9.40;;;5.03;;
5412;SDS011;2729;50.056;8.678;2022-12-07T02:04:44;9.50;;;4.57;;
5412;SDS011;2729;50.056;8.678;2022-12-07T02:07:10;9.30;;;5.50;;
5412;SDS011;2729;50.056;8.678;2022-12-07T02:09:37;8.30;;;5.10;;
5412;SDS011;2729;50.056;8.678;2022-12-07T02:12:03;8.20;;;4.60;;
5412;SDS011;2729;50.056;8.678;2022-12-07T02:14:30;9.50;;;5.10;;
5412;SDS011;2729;50.056;8.678;2022-12-07T02:17:04;6.87;;;4.80;;
5412;SDS011;2729;50.056;8.678;2022-12-07T02:20:00;5.73;;;4.20;;
5412;SDS011;2729;50.056;8.678;2022-12-07T02:28:50;4.50;;;3.70;;
5412;SDS011;2729;50.056;8.678;2022-12-07T02:31:36;7.67;;;4.70;;
5412;SDS011;2729;50.056;8.678;2022-12-07T02:34:11;11.17;;;4.87;;
5412;SDS011;2729;50.056;8.678;2022-12-07T02:36:45;6.90;;;4.40;;
5412;SDS011;2729;50.056;8.678;2022-12-07T02:39:24;6.77;;;4.50;;
5412;SDS011;2729;50.056;8.678;2022-12-07T02:42:14;11.03;;;4.67;;
5412;SDS011;2729;50.056;8.678;2022-12-07T02:44:44;6.77;;;4.53;;
5412;SDS011;2729;50.056;8.678;2022-12-07T02:47:12;8.27;;;4.13;;
5412;SDS011;2729;50.056;8.678;2022-12-07T02:49:42;16.27;;;4.77;;
5412;SDS011;2729;50.056;8.678;2022-12-07T02:52:08;7.00;;;4.27;;
5412;SDS011;2729;50.056;8.678;2022-12-07T02:54:34;8.63;;;4.83;;
5412;SDS011;2729;50.056;8.678;2022-12-07T02:57:11;12.53;;;4.80;;
5412;SDS011;2729;50.056;8.678;2022-12-07T03:05:07;6.53;;;5.10;;
5412;SDS011;2729;50.056;8.678;2022-12-07T03:07:45;5.13;;;4.03;;
5412;SDS011;2729;50.056;8.678;2022-12-07T03:10:16;7.70;;;4.03;;
5412;SDS011;2729;50.056;8.678;2022-12-07T03:12:53;7.90;;;4.40;;
5412;SDS011;2729;50.056;8.678;2022-12-07T03:15:34;5.20;;;3.70;;
5412;SDS011;2729;50.056;8.678;2022-12-07T03:18:05;7.50;;;4.27;;
5412;SDS011;2729;50.056;8.678;2022-12-07T03:20:34;4.33;;;3.93;;
5412;SDS011;2729;50.056;8.678;2022-12-07T03:23:04;6.90;;;4.60;;
5412;SDS011;2729;50.056;8.678;2022-12-07T03:25:35;6.23;;;4.17;;
5412;SDS011;2729;50.056;8.678;2022-12-07T03:28:06;7.10;;;4.37;;
5412;SDS011;2729;50.056;8.678;2022-12-07T03:30:39;7.90;;;4.40;;
5412;SDS011;2729;50.056;8.678;2022-12-07T03:33:15;5.10;;;3.63;;
5412;SDS011;2729;50.056;8.678;2022-12-07T03:35:48;6.50;;;4.43;;
5412;SDS011;2729;50.056;8.678;2022-12-07T03:38:22;7.60;;;4.27;;
5412;SDS011;2729;50.056;8.678;2022-12-07T03:43:21;7.30;;;3.83;;
5412;SDS011;2729;50.056;8.678;2022-12-07T03:48:57;7.93;;;4.43;;
5412;SDS011;2729;50.056;8.678;2022-12-07T03:51:35;6.13;;;3.60;;
5412;SDS011;2729;50.056;8.678;2022-12-07T03:54:23;5.03;;;3.63;;
5412;SDS011;2729;50.056;8.678;2022-12-07T03:56:53;8.23;;;4.40;;
5412;SDS011;2729;50.056;8.678;2022-12-07T03:59:21;5.17;;;4.10;;
5412;SDS011;2729;50.056;8.678;2022-12-07T04:01:53;5.30;;;3.50;;
5412;SDS011;2729;50.056;8.678;2022-12-07T04:04:22;5.83;;;3.83;;
5412;SDS011;2729;50.056;8.678;2022-12-07T04:06:50;6.30;;;3.67;;
5412;SDS011;2729;50.056;8.678;2022-12-07T04:09:16;5.90;;;4.20;;
5412;SDS011;2729;50.056;8.678;2022-12-07T04:11:43;5.60;;;3.70;;
5412;SDS011;2729;50.056;8.678;2022-12-07T04:14:09;4.40;;;3.50;;
5412;SDS011;2729;50.056;8.678;2022-12-07T04:16:44;7.03;;;4.40;;
5412;SDS011;2729;50.056;8.678;2022-12-07T04:19:11;5.47;;;3.40;;
5412;SDS011;2729;50.056;8.678;2022-12-07T04:21:38;5.10;;;3.53;;
5412;SDS011;2729;50.056;8.678;2022-12-07T04:24:04;6.10;;;4.27;;
5412;SDS011;2729;50.056;8.678;2022-12-07T04:26:31;5.90;;;3.80;;
5412;SDS011;2729;50.056;8.678;2022-12-07T04:28:57;3.97;;;3.63;;
5412;SDS011;2729;50.056;8.678;2022-12-07T04:31:23;6.20;;;3.63;;
5412;SDS011;2729;50.056;8.678;2022-12-07T04:33:49;3.80;;;3.40;;
5412;SDS011;2729;50.056;8.678;2022-12-07T04:36:15;6.10;;;4.13;;
5412;SDS011;2729;50.056;8.678;2022-12-07T04:38:41;6.57;;;4.50;;
5412;SDS011;2729;50.056;8.678;2022-12-07T04:41:07;8.33;;;4.37;;
5412;SDS011;2729;50.056;8.678;2022-12-07T04:43:34;5.00;;;3.20;;
5412;SDS011;2729;50.056;8.678;2022-12-07T04:46:00;6.47;;;3.30;;
5412;SDS011;2729;50.056;8.678;2022-12-07T04:48:26;5.30;;;3.50;;
5412;SDS011;2729;50.056;8.678;2022-12-07T04:50:53;8.20;;;4.50;;
5412;SDS011;2729;50.056;8.678;2022-12-07T04:53:19;6.53;;;3.77;;
5412;SDS011;2729;50.056;8.678;2022-12-07T04:55:45;6.13;;;3.83;;
5412;SDS011;2729;50.056;8.678;2022-12-07T04:58:11;5.70;;;3.70;;
5412;SDS011;2729;50.056;8.678;2022-12-07T05:00:38;4.23;;;3.07;;
5412;SDS011;2729;50.056;8.678;2022-12-07T05:03:04;6.17;;;3.90;;
5412;SDS011;2729;50.056;8.678;2022-12-07T05:05:30;5.57;;;3.60;;
5412;SDS011;2729;50.056;8.678;2022-12-07T05:07:56;7.57;;;4.10;;
5412;SDS011;2729;50.056;8.678;2022-12-07T05:10:22;5.33;;;3.90;;
5412;SDS011;2729;50.056;8.678;2022-12-07T05:12:48;4.63;;;3.83;;
5412;SDS011;2729;50.056;8.678;2022-12-07T05:15:14;6.67;;;3.57;;
5412;SDS011;2729;50.056;8.678;2022-12-07T05:17:41;5.60;;;3.67;;
5412;SDS011;2729;50.056;8.678;2022-12-07T05:20:07;7.20;;;4.27;;
5412;SDS011;2729;50.056;8.678;2022-12-07T05:22:34;4.17;;;3.53;;
5412;SDS011;2729;50.056;8.678;2022-12-07T05:25:00;8.73;;;4.60;;
5412;SDS011;2729;50.056;8.678;2022-12-07T05:27:26;10.37;;;4.50;;
5412;SDS011;2729;50.056;8.678;2022-12-07T05:29:52;6.80;;;4.10;;
5412;SDS011;2729;50.056;8.678;2022-12-07T05:32:18;5.40;;;3.73;;
5412;SDS011;2729;50.056;8.678;2022-12-07T05:34:44;7.90;;;3.90;;
5412;SDS011;2729;50.056;8.678;2022-12-07T05:37:10;4.87;;;3.67;;
5412;SDS011;2729;50.056;8.678;2022-12-07T05:39:36;6.00;;;4.43;;
5412;SDS011;2729;50.056;8.678;2022-12-07T05:42:06;5.40;;;3.57;;
5412;SDS011;2729;50.056;8.678;2022-12-07T05:44:38;6.23;;;4.53;;
5412;SDS011;2729;50.056;8.678;2022-12-07T05:47:04;7.47;;;4.10;;
5412;SDS011;2729;50.056;8.678;2022-12-07T05:49:31;4.30;;;3.20;;
5412;SDS011;2729;50.056;8.678;2022-12-07T05:51:57;6.00;;;3.90;;
5412;SDS011;2729;50.056;8.678;2022-12-07T05:54:23;5.33;;;3.93;;
5412;SDS011;2729;50.056;8.678;2022-12-07T05:56:49;5.07;;;3.53;;
5412;SDS011;2729;50.056;8.678;2022-12-07T05:59:15;6.27;;;4.03;;
5412;SDS011;2729;50.056;8.678;2022-12-07T06:01:56;5.13;;;4.27;;
5412;SDS011;2729;50.056;8.678;2022-12-07T06:04:31;7.83;;;4.07;;
5412;SDS011;2729;50.056;8.678;2022-12-07T06:06:59;8.77;;;4.37;;
5412;SDS011;2729;50.056;8.678;2022-12-07T06:09:26;7.60;;;3.67;;
5412;SDS011;2729;50.056;8.678;2022-12-07T06:11:52;20.33;;;3.80;;
5412;SDS011;2729;50.056;8.678;2022-12-07T06:14:37;6.90;;;3.53;;
5412;SDS011;2729;50.056;8.678;2022-12-07T06:17:04;8.93;;;4.57;;
5412;SDS011;2729;50.056;8.678;2022-12-07T06:19:30;6.70;;;4.10;;
5412;SDS011;2729;50.056;8.678;2022-12-07T06:21:56;5.47;;;4.10;;
5412;SDS011;2729;50.056;8.678;2022-12-07T06:24:22;6.20;;;4.33;;
5412;SDS011;2729;50.056;8.678;2022-12-07T06:26:49;5.90;;;4.27;;
5412;SDS011;2729;50.056;8.678;2022-12-07T06:29:15;8.10;;;4.50;;
5412;SDS011;2729;50.056;8.678;2022-12-07T06:31:42;8.00;;;4.50;;
5412;SDS011;2729;50.056;8.678;2022-12-07T06:34:10;7.83;;;4.30;;
5412;SDS011;2729;50.056;8.678;2022-12-07T06:36:37;6.50;;;4.00;;
5412;SDS011;2729;50.056;8.678;2022-12-07T06:39:04;5.93;;;4.10;;
5412;SDS011;2729;50.056;8.678;2022-12-07T06:41:31;7.60;;;4.40;;
5412;SDS011;2729;50.056;8.678;2022-12-07T06:43:56;6.37;;;4.33;;
5412;SDS011;2729;50.056;8.678;2022-12-07T06:46:23;10.40;;;4.53;;
5412;SDS011;2729;50.056;8.678;2022-12-07T06:48:49;5.50;;;4.07;;
5412;SDS011;2729;50.056;8.678;2022-12-07T06:51:15;5.63;;;4.10;;
5412;SDS011;2729;50.056;8.678;2022-12-07T06:53:41;6.27;;;4.17;;
5412;SDS011;2729;50.056;8.678;2022-12-07T06:56:07;7.00;;;4.50;;
5412;SDS011;2729;50.056;8.678;2022-12-07T06:58:33;10.17;;;4.70;;
5412;SDS011;2729;50.056;8.678;2022-12-07T07:00:59;6.03;;;4.30;;
5412;SDS011;2729;50.056;8.678;2022-12-07T07:03:25;8.27;;;4.30;;
5412;SDS011;2729;50.056;8.678;2022-12-07T07:05:51;8.97;;;4.70;;
5412;SDS011;2729;50.056;8.678;2022-12-07T07:08:17;11.13;;;4.53;;
5412;SDS011;2729;50.056;8.678;2022-12-07T07:10:43;4.80;;;3.83;;
5412;SDS011;2729;50.056;8.678;2022-12-07T07:13:09;9.07;;;4.50;;
5412;SDS011;2729;50.056;8.678;2022-12-07T07:15:36;8.17;;;5.20;;
5412;SDS011;2729;50.056;8.678;2022-12-07T07:18:03;7.40;;;4.23;;
5412;SDS011;2729;50.056;8.678;2022-12-07T07:20:29;7.63;;;4.60;;
5412;SDS011;2729;50.056;8.678;2022-12-07T07:22:55;5.30;;;3.80;;
5412;SDS011;2729;50.056;8.678;2022-12-07T07:25:21;8.80;;;4.13;;
5412;SDS011;2729;50.056;8.678;2022-12-07T07:27:47;4.73;;;3.90;;
5412;SDS011;2729;50.056;8.678;2022-12-07T07:30:13;6.13;;;4.50;;
5412;SDS011;2729;50.056;8.678;2022-12-07T07:32:39;7.70;;;5.10;;
5412;SDS011;2729;50.056;8.678;2022-12-07T07:35:05;4.83;;;3.93;;
5412;SDS011;2729;50.056;8.678;2022-12-07T07:37:32;6.33;;;4.37;;
5412;SDS011;2729;50.056;8.678;2022-12-07T07:39:58;6.47;;;4.00;;
5412;SDS011;2729;50.056;8.678;2022-12-07T07:42:23;8.27;;;5.10;;
5412;SDS011;2729;50.056;8.678;2022-12-07T07:44:49;8.30;;;4.63;;
5412;SDS011;2729;50.056;8.678;2022-12-07T07:47:15;7.87;;;4.20;;
5412;SDS011;2729;50.056;8.678;2022-12-07T07:49:41;6.33;;;3.67;;
5412;SDS011;2729;50.056;8.678;2022-12-07T07:52:07;6.60;;;4.13;;
5412;SDS011;2729;50.056;8.678;2022-12-07T07:54:33;7.20;;;4.33;;
5412;SDS011;2729;50.056;8.678;2022-12-07T07:56:59;4.80;;;3.60;;
5412;SDS011;2729;50.056;8.678;2022-12-07T07:59:28;8.23;;;4.60;;
5412;SDS011;2729;50.056;8.678;2022-12-07T08:01:54;8.83;;;4.83;;
5412;SDS011;2729;50.056;8.678;2022-12-07T08:04:20;6.60;;;4.20;;
5412;SDS011;2729;50.056;8.678;2022-12-07T08:06:46;10.17;;;4.77;;
5412;SDS011;2729;50.056;8.678;2022-12-07T08:09:12;8.17;;;4.80;;
5412;SDS011;2729;50.056;8.678;2022-12-07T08:11:38;9.43;;;5.27;;
5412;SDS011;2729;50.056;8.678;2022-12-07T08:14:04;7.30;;;5.07;;
5412;SDS011;2729;50.056;8.678;2022-12-07T08:16:30;5.43;;;4.03;;
5412;SDS011;2729;50.056;8.678;2022-12-07T08:18:57;8.87;;;5.40;;
5412;SDS011;2729;50.056;8.678;2022-12-07T08:21:23;5.97;;;4.60;;
5412;SDS011;2729;50.056;8.678;2022-12-07T08:23:48;7.20;;;4.50;;
5412;SDS011;2729;50.056;8.678;2022-12-07T08:26:15;9.03;;;4.80;;
5412;SDS011;2729;50.056;8.678;2022-12-07T08:28:41;8.33;;;4.00;;
5412;SDS011;2729;50.056;8.678;2022-12-07T08:31:10;7.30;;;4.50;;
5412;SDS011;2729;50.056;8.678;2022-12-07T08:33:39;11.90;;;4.80;;
5412;SDS011;2729;50.056;8.678;2022-12-07T08:36:06;5.97;;;4.27;;
5412;SDS011;2729;50.056;8.678;2022-12-07T08:38:35;8.30;;;4.57;;
5412;SDS011;2729;50.056;8.678;2022-12-07T08:41:02;6.20;;;3.60;;
5412;SDS011;2729;50.056;8.678;2022-12-07T08:43:28;5.97;;;3.93;;
5412;SDS011;2729;50.056;8.678;2022-12-07T08:46:15;7.50;;;4.77;;
5412;SDS011;2729;50.056;8.678;2022-12-07T08:48:51;7.30;;;4.30;;
5412;SDS011;2729;50.056;8.678;2022-12-07T08:51:21;7.80;;;4.40;;
5412;SDS011;2729;50.056;8.678;2022-12-07T08:53:48;8.77;;;4.97;;
5412;SDS011;2729;50.056;8.678;2022-12-07T08:56:15;7.80;;;4.63;;
5412;SDS011;2729;50.056;8.678;2022-12-07T08:58:41;6.60;;;4.63;;
5412;SDS011;2729;50.056;8.678;2022-12-07T09:01:08;7.87;;;4.77;;
5412;SDS011;2729;50.056;8.678;2022-12-07T09:03:34;5.67;;;4.47;;
5412;SDS011;2729;50.056;8.678;2022-12-07T09:06:00;11.90;;;4.60;;
5412;SDS011;2729;50.056;8.678;2022-12-07T09:08:27;6.47;;;4.53;;
5412;SDS011;2729;50.056;8.678;2022-12-07T09:10:56;6.33;;;4.60;;
5412;SDS011;2729;50.056;8.678;2022-12-07T09:13:22;5.67;;;3.97;;
5412;SDS011;2729;50.056;8.678;2022-12-07T09:15:48;6.37;;;4.37;;
5412;SDS011;2729;50.056;8.678;2022-12-07T09:18:14;6.67;;;4.80;;
5412;SDS011;2729;50.056;8.678;2022-12-07T09:20:40;9.77;;;5.57;;
5412;SDS011;2729;50.056;8.678;2022-12-07T09:23:06;8.30;;;4.80;;
5412;SDS011;2729;50.056;8.678;2022-12-07T09:25:33;6.60;;;4.60;;
5412;SDS011;2729;50.056;8.678;2022-12-07T09:28:00;12.87;;;4.87;;
5412;SDS011;2729;50.056;8.678;2022-12-07T09:30:26;9.50;;;5.33;;
5412;SDS011;2729;50.056;8.678;2022-12-07T09:32:53;7.53;;;4.63;;
5412;SDS011;2729;50.056;8.678;2022-12-07T09:35:20;9.53;;;5.20;;
5412;SDS011;2729;50.056;8.678;2022-12-07T09:37:47;9.40;;;5.20;;
5412;SDS011;2729;50.056;8.678;2022-12-07T09:40:13;10.00;;;4.50;;
5412;SDS011;2729;50.056;8.678;2022-12-07T09:42:51;8.43;;;4.77;;
5412;SDS011;2729;50.056;8.678;2022-12-07T09:45:21;9.97;;;5.30;;
5412;SDS011;2729;50.056;8.678;2022-12-07T09:47:56;9.30;;;4.90;;
5412;SDS011;2729;50.056;8.678;2022-12-07T09:50:24;9.10;;;5.50;;
5412;SDS011;2729;50.056;8.678;2022-12-07T09:52:52;6.90;;;5.30;;
5412;SDS011;2729;50.056;8.678;2022-12-07T09:55:28;6.20;;;3.97;;
5412;SDS011;2729;50.056;8.678;2022-12-07T09:57:56;4.30;;;3.70;;
5412;SDS011;2729;50.056;8.678;2022-12-07T10:00:23;7.10;;;4.37;;
5412;SDS011;2729;50.056;8.678;2022-12-07T10:03:00;7.50;;;4.30;;
5412;SDS011;2729;50.056;8.678;2022-12-07T10:05:29;11.63;;;4.10;;
5412;SDS011;2729;50.056;8.678;2022-12-07T10:08:00;6.30;;;3.67;;
5412;SDS011;2729;50.056;8.678;2022-12-07T10:10:28;20.53;;;7.43;;
5412;SDS011;2729;50.056;8.678;2022-12-07T10:13:01;6.40;;;4.50;;
5412;SDS011;2729;50.056;8.678;2022-12-07T10:15:47;7.20;;;4.27;;
5412;SDS011;2729;50.056;8.678;2022-12-07T10:18:17;5.93;;;4.57;;
5412;SDS011;2729;50.056;8.678;2022-12-07T10:20:48;4.43;;;3.77;;
5412;SDS011;2729;50.056;8.678;2022-12-07T10:23:15;6.20;;;4.00;;
5412;SDS011;2729;50.056;8.678;2022-12-07T10:25:43;6.20;;;4.20;;
5412;SDS011;2729;50.056;8.678;2022-12-07T10:28:12;7.00;;;4.07;;
5412;SDS011;2729;50.056;8.678;2022-12-07T10:33:27;7.23;;;4.43;;
5412;SDS011;2729;50.056;8.678;2022-12-07T10:38:58;6.70;;;4.23;;
5412;SDS011;2729;50.056;8.678;2022-12-07T10:42:02;5.07;;;3.93;;
5412;SDS011;2729;50.056;8.678;2022-12-07T10:44:30;6.93;;;3.77;;
5412;SDS011;2729;50.056;8.678;2022-12-07T10:52:42;7.70;;;4.33;;
5412;SDS011;2729;50.056;8.678;2022-12-07T10:58:21;7.00;;;4.07;;
5412;SDS011;2729;50.056;8.678;2022-12-07T11:04:07;4.60;;;4.07;;
5412;SDS011;2729;50.056;8.678;2022-12-07T11:09:56;10.90;;;3.47;;
5412;SDS011;2729;50.056;8.678;2022-12-07T11:12:39;6.73;;;3.87;;
5412;SDS011;2729;50.056;8.678;2022-12-07T11:15:34;5.87;;;3.67;;
5412;SDS011;2729;50.056;8.678;2022-12-07T11:18:25;4.50;;;3.40;;
5412;SDS011;2729;50.056;8.678;2022-12-07T11:23:48;4.10;;;2.63;;
5412;SDS011;2729;50.056;8.678;2022-12-07T11:26:39;3.47;;;3.00;;
5412;SDS011;2729;50.056;8.678;2022-12-07T11:32:15;4.80;;;3.50;;
5412;SDS011;2729;50.056;8.678;2022-12-07T11:37:34;4.90;;;3.23;;
5412;SDS011;2729;50.056;8.678;2022-12-07T11:40:24;6.33;;;3.63;;
5412;SDS011;2729;50.056;8.678;2022-12-07T11:43:21;2.73;;;2.53;;
5412;SDS011;2729;50.056;8.678;2022-12-07T11:45:54;12.50;;;3.33;;
5412;SDS011;2729;50.056;8.678;2022-12-07T11:48:33;4.30;;;3.10;;
5412;SDS011;2729;50.056;8.678;2022-12-07T11:51:00;10.47;;;3.50;;
5412;SDS011;2729;50.056;8.678;2022-12-07T11:53:31;4.50;;;2.60;;
5412;SDS011;2729;50.056;8.678;2022-12-07T11:56:11;6.53;;;2.83;;
5412;SDS011;2729;50.056;8.678;2022-12-07T12:06:39;7.73;;;2.50;;
5412;SDS011;2729;50.056;8.678;2022-12-07T12:15:13;3.40;;;2.07;;
5412;SDS011;2729;50.056;8.678;2022-12-07T12:23:21;1.33;;;1.23;;
5412;SDS011;2729;50.056;8.678;2022-12-07T12:25:54;3.90;;;1.70;;
5412;SDS011;2729;50.056;8.678;2022-12-07T12:28:41;1.67;;;1.30;;
5412;SDS011;2729;50.056;8.678;2022-12-07T12:33:48;1.50;;;1.40;;
5412;SDS011;2729;50.056;8.678;2022-12-07T12:38:49;1.33;;;1.33;;
5412;SDS011;2729;50.056;8.678;2022-12-07T12:44:03;3.83;;;1.57;;
5412;SDS011;2729;50.056;8.678;2022-12-07T12:46:49;6.90;;;1.43;;
5412;SDS011;2729;50.056;8.678;2022-12-07T12:49:32;1.53;;;1.43;;
5412;SDS011;2729;50.056;8.678;2022-12-07T12:52:00;1.50;;;1.40;;
5412;SDS011;2729;50.056;8.678;2022-12-07T12:54:57;2.80;;;1.50;;
5412;SDS011;2729;50.056;8.678;2022-12-07T13:02:21;1.70;;;1.60;;
5412;SDS011;2729;50.056;8.678;2022-12-07T13:04:50;1.20;;;1.10;;
5412;SDS011;2729;50.056;8.678;2022-12-07T13:13:25;4.53;;;1.37;;
5412;SDS011;2729;50.056;8.678;2022-12-07T13:15:54;1.60;;;1.50;;
5412;SDS011;2729;50.056;8.678;2022-12-07T13:28:48;3.07;;;1.10;;
5412;SDS011;2729;50.056;8.678;2022-12-07T13:34:02;1.70;;;1.23;;
5412;SDS011;2729;50.056;8.678;2022-12-07T13:36:33;1.57;;;1.47;;
5412;SDS011;2729;50.056;8.678;2022-12-07T13:41:43;2.30;;;1.13;;
5412;SDS011;2729;50.056;8.678;2022-12-07T13:44:12;2.53;;;1.40;;
5412;SDS011;2729;50.056;8.678;2022-12-07T13:49:38;1.40;;;1.30;;
5412;SDS011;2729;50.056;8.678;2022-12-07T13:52:19;25.80;;;1.90;;
5412;SDS011;2729;50.056;8.678;2022-12-07T13:54:48;2.40;;;1.50;;
5412;SDS011;2729;50.056;8.678;2022-12-07T13:57:20;2.40;;;1.10;;
5412;SDS011;2729;50.056;8.678;2022-12-07T13:59:48;1.30;;;1.30;;
5412;SDS011;2729;50.056;8.678;2022-12-07T14:02:18;3.53;;;1.23;;
5412;SDS011;2729;50.056;8.678;2022-12-07T14:04:48;1.17;;;1.17;;
5412;SDS011;2729;50.056;8.678;2022-12-07T14:07:24;2.03;;;1.37;;
5412;SDS011;2729;50.056;8.678;2022-12-07T14:10:03;1.40;;;1.30;;
5412;SDS011;2729;50.056;8.678;2022-12-07T14:12:31;3.33;;;1.67;;
5412;SDS011;2729;50.056;8.678;2022-12-07T14:14:58;1.57;;;1.47;;
5412;SDS011;2729;50.056;8.678;2022-12-07T14:17:28;2.50;;;1.23;;
5412;SDS011;2729;50.056;8.678;2022-12-07T14:19:55;1.40;;;1.30;;
5412;SDS011;2729;50.056;8.678;2022-12-07T14:22:24;1.80;;;1.70;;
5412;SDS011;2729;50.056;8.678;2022-12-07T14:30:21;2.00;;;1.40;;
5412;SDS011;2729;50.056;8.678;2022-12-07T14:32:52;6.97;;;1.90;;
5412;SDS011;2729;50.056;8.678;2022-12-07T14:35:20;1.63;;;1.40;;
5412;SDS011;2729;50.056;8.678;2022-12-07T14:37:47;2.47;;;1.43;;
5412;SDS011;2729;50.056;8.678;2022-12-07T14:40:15;4.30;;;1.53;;
5412;SDS011;2729;50.056;8.678;2022-12-07T14:42:50;2.80;;;1.50;;
5412;SDS011;2729;50.056;8.678;2022-12-07T14:45:19;2.70;;;1.40;;
5412;SDS011;2729;50.056;8.678;2022-12-07T14:47:47;3.87;;;1.30;;
5412;SDS011;2729;50.056;8.678;2022-12-07T14:50:18;5.13;;;1.50;;
5412;SDS011;2729;50.056;8.678;2022-12-07T14:52:46;1.90;;;1.40;;
5412;SDS011;2729;50.056;8.678;2022-12-07T14:55:20;0.90;;;0.90;;
5412;SDS011;2729;50.056;8.678;2022-12-07T14:57:50;1.53;;;1.43;;
5412;SDS011;2729;50.056;8.678;2022-12-07T15:00:16;2.30;;;1.00;;
5412;SDS011;2729;50.056;8.678;2022-12-07T15:02:44;3.23;;;1.20;;
5412;SDS011;2729;50.056;8.678;2022-12-07T15:05:10;2.00;;;1.37;;
5412;SDS011;2729;50.056;8.678;2022-12-07T15:07:37;5.30;;;1.23;;
5412;SDS011;2729;50.056;8.678;2022-12-07T15:10:03;1.73;;;1.40;;
5412;SDS011;2729;50.056;8.678;2022-12-07T15:12:29;2.60;;;1.63;;
5412;SDS011;2729;50.056;8.678;2022-12-07T15:14:55;1.23;;;1.13;;
5412;SDS011;2729;50.056;8.678;2022-12-07T15:17:21;1.00;;;1.00;;
5412;SDS011;2729;50.056;8.678;2022-12-07T15:19:47;1.57;;;1.53;;
5412;SDS011;2729;50.056;8.678;2022-12-07T15:22:13;1.30;;;1.23;;
5412;SDS011;2729;50.056;8.678;2022-12-07T15:24:39;1.87;;;1.60;;
5412;SDS011;2729;50.056;8.678;2022-12-07T15:27:05;1.83;;;1.47;;
5412;SDS011;2729;50.056;8.678;2022-12-07T15:29:31;1.53;;;1.43;;
5412;SDS011;2729;50.056;8.678;2022-12-07T15:31:57;2.43;;;1.70;;
5412;SDS011;2729;50.056;8.678;2022-12-07T15:34:24;1.30;;;1.30;;
5412;SDS011;2729;50.056;8.678;2022-12-07T15:36:52;4.00;;;1.27;;
5412;SDS011;2729;50.056;8.678;2022-12-07T15:39:17;1.80;;;1.70;;
5412;SDS011;2729;50.056;8.678;2022-12-07T15:41:43;2.07;;;1.67;;
5412;SDS011;2729;50.056;8.678;2022-12-07T15:44:11;1.83;;;1.70;;
5412;SDS011;2729;50.056;8.678;2022-12-07T15:46:56;1.77;;;1.63;;
5412;SDS011;2729;50.056;8.678;2022-12-07T15:49:22;2.03;;;1.83;;
5412;SDS011;2729;50.056;8.678;2022-12-07T15:51:48;3.40;;;2.33;;
5412;SDS011;2729;50.056;8.678;2022-12-07T15:54:21;4.80;;;2.97;;
5412;SDS011;2729;50.056;8.678;2022-12-07T15:56:49;3.47;;;3.20;;
5412;SDS011;2729;50.056;8.678;2022-12-07T15:59:15;6.70;;;2.90;;
5412;SDS011;2729;50.056;8.678;2022-12-07T16:01:41;3.10;;;2.90;;
5412;SDS011;2729;50.056;8.678;2022-12-07T16:04:07;5.73;;;3.17;;
5412;SDS011;2729;50.056;8.678;2022-12-07T16:06:33;5.30;;;3.40;;
5412;SDS011;2729;50.056;8.678;2022-12-07T16:09:00;2.53;;;2.43;;
5412;SDS011;2729;50.056;8.678;2022-12-07T16:11:26;2.03;;;1.90;;
5412;SDS011;2729;50.056;8.678;2022-12-07T16:13:52;2.10;;;2.00;;
5412;SDS011;2729;50.056;8.678;2022-12-07T16:16:18;5.57;;;2.43;;
5412;SDS011;2729;50.056;8.678;2022-12-07T16:18:45;2.40;;;2.30;;
5412;SDS011;2729;50.056;8.678;2022-12-07T16:21:12;2.00;;;1.90;;
5412;SDS011;2729;50.056;8.678;2022-12-07T16:23:39;17.10;;;6.80;;
5412;SDS011;2729;50.056;8.678;2022-12-07T16:26:10;10.60;;;4.30;;
5412;SDS011;2729;50.056;8.678;2022-12-07T16:28:37;14.77;;;6.00;;
5412;SDS011;2729;50.056;8.678;2022-12-07T16:31:08;14.03;;;3.93;;
5412;SDS011;2729;50.056;8.678;2022-12-07T16:33:39;13.00;;;4.57;;
5412;SDS011;2729;50.056;8.678;2022-12-07T16:36:06;29.53;;;7.47;;
5412;SDS011;2729;50.056;8.678;2022-12-07T16:38:33;38.57;;;13.00;;
5412;SDS011;2729;50.056;8.678;2022-12-07T16:41:00;32.87;;;10.33;;
5412;SDS011;2729;50.056;8.678;2022-12-07T16:43:25;13.43;;;5.83;;
5412;SDS011;2729;50.056;8.678;2022-12-07T16:45:52;3.70;;;2.23;;
5412;SDS011;2729;50.056;8.678;2022-12-07T16:48:18;1.60;;;1.50;;
5412;SDS011;2729;50.056;8.678;2022-12-07T16:50:44;2.83;;;1.67;;
5412;SDS011;2729;50.056;8.678;2022-12-07T16:53:11;4.30;;;1.80;;
5412;SDS011;2729;50.056;8.678;2022-12-07T16:55:38;2.37;;;1.60;;
5412;SDS011;2729;50.056;8.678;2022-12-07T16:58:05;3.10;;;1.93;;
5412;SDS011;2729;50.056;8.678;2022-12-07T17:00:31;1.70;;;1.60;;
5412;SDS011;2729;50.056;8.678;2022-12-07T17:02:57;2.53;;;2.10;;
5412;SDS011;2729;50.056;8.678;2022-12-07T17:05:24;3.13;;;2.27;;
5412;SDS011;2729;50.056;8.678;2022-12-07T17:07:50;2.30;;;1.97;;
5412;SDS011;2729;50.056;8.678;2022-12-07T17:10:16;19.50;;;8.30;;
5412;SDS011;2729;50.056;8.678;2022-12-07T17:12:42;28.80;;;9.17;;
5412;SDS011;2729;50.056;8.678;2022-12-07T17:15:08;17.80;;;7.03;;
5412;SDS011;2729;50.056;8.678;2022-12-07T17:17:56;9.20;;;4.60;;